createdAt,value
2023-09-20T00:00:34.801Z,29.59
2023-09-20T00:03:04.552Z,29.59
2023-09-20T00:05:35.153Z,29.61
2023-09-20T00:08:06.086Z,29.65
2023-09-20T00:10:35.733Z,29.65
2023-09-20T00:13:05.208Z,29.71
2023-09-20T00:15:34.885Z,29.70
2023-09-20T00:18:04.456Z,29.68
2023-09-20T00:20:35.005Z,29.61
2023-09-20T00:23:06.881Z,29.57
2023-09-20T00:25:36.578Z,29.56
2023-09-20T00:28:06.064Z,29.50
2023-09-20T00:30:35.883Z,29.48
2023-09-20T00:33:05.830Z,29.54
2023-09-20T00:35:39.265Z,29.49
2023-09-20T00:38:10.110Z,29.52
2023-09-20T00:40:41.221Z,29.52
2023-09-20T00:43:13.620Z,29.50
2023-09-20T00:45:43.621Z,29.49
2023-09-20T00:48:14.861Z,29.40
2023-09-20T00:50:45.525Z,29.45
2023-09-20T00:53:16.333Z,29.44
2023-09-20T00:55:46.322Z,29.45
2023-09-20T00:58:19.776Z,29.49
2023-09-20T01:00:50.031Z,29.46
2023-09-20T01:03:20.636Z,29.40
2023-09-20T01:05:50.857Z,29.47
2023-09-20T01:08:22.688Z,29.52
2023-09-20T01:10:54.303Z,29.59
2023-09-20T01:13:24.440Z,29.64
2023-09-20T01:15:54.907Z,29.69
2023-09-20T01:18:24.669Z,29.74
2023-09-20T01:20:54.049Z,29.79
2023-09-20T01:23:24.388Z,29.83
2023-09-20T01:25:53.938Z,29.89
2023-09-20T01:28:26.865Z,29.93
2023-09-20T01:30:56.556Z,29.96
2023-09-20T01:33:26.702Z,30.00
2023-09-20T01:35:56.506Z,30.01
2023-09-20T01:38:28.004Z,30.06
2023-09-20T01:41:00.268Z,30.09
2023-09-20T01:43:29.929Z,30.12
2023-09-20T01:45:59.250Z,30.16
2023-09-20T01:48:29.507Z,30.18
2023-09-20T01:50:59.638Z,30.06
2023-09-20T01:53:29.296Z,30.24
2023-09-20T01:56:02.670Z,30.26
2023-09-20T01:58:32.312Z,30.30
2023-09-20T02:01:02.009Z,30.33
2023-09-20T02:03:33.916Z,30.35
2023-09-20T02:06:03.455Z,30.39
2023-09-20T02:08:32.810Z,30.42
2023-09-20T02:11:02.558Z,30.44
2023-09-20T02:13:31.875Z,30.46
2023-09-20T02:16:01.708Z,30.49
2023-09-20T02:18:31.994Z,30.53
2023-09-20T02:21:01.554Z,30.56
2023-09-20T02:23:36.167Z,30.58
2023-09-20T02:26:15.074Z,30.61
2023-09-20T02:28:46.512Z,30.64
2023-09-20T02:31:20.282Z,30.66
2023-09-20T02:33:49.927Z,30.69
2023-09-20T02:36:19.256Z,30.71
2023-09-20T02:38:49.014Z,30.75
2023-09-20T02:41:18.903Z,30.78
2023-09-20T02:43:48.468Z,30.79
2023-09-20T02:46:17.775Z,30.84
2023-09-20T02:48:47.401Z,30.86
2023-09-20T02:51:17.097Z,30.89
2023-09-20T02:53:46.694Z,30.92
2023-09-20T02:56:16.389Z,30.94
2023-09-20T02:58:50.691Z,30.97
2023-09-20T03:01:20.948Z,30.99
2023-09-20T03:03:51.953Z,31.02
2023-09-20T03:06:21.710Z,31.05
2023-09-20T03:08:51.255Z,31.06
2023-09-20T03:11:23.504Z,31.09
2023-09-20T03:13:53.042Z,31.13
2023-09-20T03:16:22.478Z,31.15
2023-09-20T03:18:52.614Z,31.17
2023-09-20T03:21:22.303Z,31.20
2023-09-20T03:23:52.015Z,31.24
2023-09-20T03:26:21.754Z,31.25
2023-09-20T03:28:51.166Z,31.29
2023-09-20T03:31:24.380Z,31.31
2023-09-20T03:33:55.656Z,31.33
2023-09-20T03:36:28.603Z,31.35
2023-09-20T03:39:00.074Z,31.37
2023-09-20T03:41:31.392Z,31.39
2023-09-20T03:44:01.047Z,31.40
2023-09-20T03:46:31.174Z,31.43
2023-09-20T03:49:01.339Z,31.44
2023-09-20T03:51:31.175Z,31.46
2023-09-20T03:54:00.670Z,31.49
2023-09-20T03:56:33.246Z,31.51
2023-09-20T03:59:03.121Z,31.53
2023-09-20T04:01:33.689Z,31.54
2023-09-20T04:04:05.889Z,31.56
2023-09-20T04:06:35.531Z,31.58
2023-09-20T04:09:12.263Z,31.60
2023-09-20T04:11:43.091Z,31.61
2023-09-20T04:14:12.697Z,31.64
2023-09-20T04:16:42.317Z,31.66
2023-09-20T04:19:11.851Z,31.68
2023-09-20T04:21:41.363Z,31.71
2023-09-20T04:24:10.721Z,31.73
2023-09-20T04:26:40.338Z,31.76
2023-09-20T04:29:10.049Z,31.78
2023-09-20T04:31:40.165Z,31.80
2023-09-20T04:34:12.676Z,31.84
2023-09-20T04:36:42.444Z,31.86
2023-09-20T04:39:13.224Z,31.89
2023-09-20T04:41:43.923Z,31.92
2023-09-20T04:44:15.641Z,31.95
2023-09-20T04:46:46.018Z,31.97
2023-09-20T04:49:15.763Z,32.00
2023-09-20T04:51:45.474Z,32.02
2023-09-20T04:54:16.671Z,32.04
2023-09-20T04:56:49.911Z,32.06
2023-09-20T04:59:21.411Z,32.09
2023-09-20T05:01:53.920Z,32.10
2023-09-20T05:04:23.735Z,32.13
2023-09-20T05:06:55.349Z,32.16
2023-09-20T05:09:25.810Z,32.18
2023-09-20T05:11:55.455Z,32.20
2023-09-20T05:14:25.581Z,32.22
2023-09-20T05:16:55.164Z,32.24
2023-09-20T05:19:27.752Z,32.27
2023-09-20T05:22:00.155Z,32.29
2023-09-20T05:24:29.851Z,32.30
2023-09-20T05:26:59.984Z,32.33
2023-09-20T05:29:29.647Z,32.35
2023-09-20T05:31:59.233Z,32.36
2023-09-20T05:34:28.978Z,32.38
2023-09-20T05:36:58.572Z,32.40
2023-09-20T05:39:28.182Z,32.42
2023-09-20T05:41:58.764Z,32.45
2023-09-20T05:44:28.821Z,32.47
2023-09-20T05:46:58.469Z,32.50
2023-09-20T05:49:27.982Z,32.52
2023-09-20T05:51:58.373Z,32.54
2023-09-20T05:54:28.307Z,32.57
2023-09-20T05:56:57.650Z,32.59
2023-09-20T05:59:28.947Z,32.60
2023-09-20T06:01:58.519Z,32.62
2023-09-20T06:04:27.969Z,32.65
2023-09-20T06:06:57.403Z,32.66
2023-09-20T06:09:26.936Z,32.70
2023-09-20T06:11:56.365Z,32.71
2023-09-20T06:14:26.910Z,32.74
2023-09-20T06:16:56.730Z,32.75
2023-09-20T06:19:27.729Z,32.79
2023-09-20T06:21:57.261Z,32.80
2023-09-20T06:24:26.711Z,32.84
2023-09-20T06:26:56.446Z,32.87
2023-09-20T06:29:27.168Z,32.88
2023-09-20T06:31:56.761Z,32.90
2023-09-20T06:34:28.654Z,32.93
2023-09-20T06:36:58.303Z,32.97
2023-09-20T06:39:28.164Z,32.99
2023-09-20T06:41:59.944Z,33.03
2023-09-20T06:44:37.424Z,33.05
2023-09-20T06:47:09.007Z,33.07
2023-09-20T06:49:40.656Z,33.10
2023-09-20T06:52:11.031Z,33.13
2023-09-20T06:54:40.600Z,33.17
2023-09-20T06:57:15.512Z,33.18
2023-09-20T06:59:46.562Z,33.19
2023-09-20T07:02:18.591Z,33.21
2023-09-20T07:04:50.745Z,33.23
2023-09-20T07:07:20.871Z,33.24
2023-09-20T07:09:50.277Z,33.25
2023-09-20T07:12:19.837Z,33.27
2023-09-20T07:14:50.099Z,33.28
2023-09-20T07:17:20.040Z,33.28
2023-09-20T07:19:49.762Z,33.31
2023-09-20T07:22:19.384Z,33.31
2023-09-20T07:24:49.532Z,33.32
2023-09-20T07:27:20.866Z,33.32
2023-09-20T07:29:51.319Z,33.32
2023-09-20T07:32:20.961Z,33.33
2023-09-20T07:34:50.582Z,33.34
2023-09-20T07:37:20.422Z,33.35
2023-09-20T07:39:52.754Z,33.38
2023-09-20T07:42:22.765Z,33.37
2023-09-20T07:44:52.756Z,33.37
2023-09-20T07:47:23.064Z,33.38
2023-09-20T07:49:52.705Z,33.40
2023-09-20T07:52:22.724Z,33.44
2023-09-20T07:54:52.618Z,33.46
2023-09-20T07:57:25.043Z,33.51
2023-09-20T07:59:55.249Z,33.53
2023-09-20T08:02:25.149Z,33.54
2023-09-20T08:04:56.489Z,33.57
2023-09-20T08:07:26.066Z,33.59
2023-09-20T08:09:55.502Z,33.59
2023-09-20T08:12:25.216Z,33.59
2023-09-20T08:14:54.640Z,33.62
2023-09-20T08:17:43.577Z,33.61
2023-09-20T08:20:15.404Z,33.63
2023-09-20T08:23:05.039Z,33.63
2023-09-20T08:25:54.372Z,33.64
2023-09-20T08:28:42.662Z,33.66
2023-09-20T08:31:30.919Z,33.66
2023-09-20T08:34:19.260Z,33.67
2023-09-20T08:37:07.075Z,33.67
2023-09-20T08:39:54.845Z,33.65
2023-09-20T08:42:43.369Z,33.67
2023-09-20T08:45:31.525Z,33.67
2023-09-20T08:48:19.220Z,33.70
2023-09-20T08:51:07.323Z,33.72
2023-09-20T08:53:56.144Z,33.74
2023-09-20T08:56:44.498Z,33.75
2023-09-20T08:59:32.350Z,33.77
2023-09-20T09:02:02.669Z,33.79
2023-09-20T09:04:32.919Z,33.79
2023-09-20T09:07:02.547Z,33.85
2023-09-20T09:09:31.972Z,33.84
2023-09-20T09:12:01.570Z,33.88
2023-09-20T09:14:31.177Z,33.88
2023-09-20T09:17:05.282Z,33.90
2023-09-20T09:19:35.300Z,33.66
2023-09-20T09:22:04.996Z,33.44
2023-09-20T09:24:47.978Z,33.35
2023-09-20T09:27:17.878Z,33.27
2023-09-20T09:29:49.331Z,33.30
2023-09-20T09:32:19.976Z,33.25
2023-09-20T09:34:50.052Z,33.31
2023-09-20T09:37:19.480Z,33.29
2023-09-20T09:40:01.242Z,33.25
2023-09-20T09:42:31.425Z,33.29
2023-09-20T09:45:01.261Z,33.30
2023-09-20T09:47:32.563Z,33.31
2023-09-20T09:50:03.474Z,33.34
2023-09-20T09:52:33.746Z,33.29
2023-09-20T09:55:03.213Z,33.32
2023-09-20T09:57:32.795Z,33.33
2023-09-20T10:00:03.533Z,33.36
2023-09-20T10:02:44.244Z,33.36
2023-09-20T10:05:15.738Z,33.31
2023-09-20T10:07:47.668Z,33.34
2023-09-20T10:10:18.766Z,33.34
2023-09-20T10:12:48.684Z,33.33
2023-09-20T10:15:18.777Z,33.36
2023-09-20T10:17:54.074Z,33.38
2023-09-20T10:20:25.148Z,33.46
2023-09-20T10:22:54.961Z,33.42
2023-09-20T10:25:31.602Z,33.36
2023-09-20T10:28:05.156Z,33.38
2023-09-20T10:30:36.724Z,33.46
2023-09-20T10:33:07.635Z,33.51
2023-09-20T10:35:37.345Z,33.56
2023-09-20T10:38:10.553Z,33.62
2023-09-20T10:40:51.119Z,33.60
2023-09-20T10:43:27.429Z,33.56
2023-09-20T10:45:59.522Z,33.51
2023-09-20T10:48:32.441Z,33.48
2023-09-20T10:51:05.720Z,33.42
2023-09-20T10:53:58.424Z,33.46
2023-09-20T10:56:46.874Z,33.44
2023-09-20T10:59:19.612Z,33.49
2023-09-20T11:01:55.974Z,33.52
2023-09-20T11:04:28.470Z,33.57
2023-09-20T11:07:01.949Z,33.68
2023-09-20T11:09:35.997Z,33.74
2023-09-20T11:12:09.188Z,33.77
2023-09-20T11:14:41.646Z,33.80
2023-09-20T11:17:15.817Z,33.81
2023-09-20T11:19:45.784Z,33.81
2023-09-20T11:22:20.585Z,33.81
2023-09-20T11:24:50.284Z,33.80
2023-09-20T11:27:19.804Z,33.78
2023-09-20T11:29:51.301Z,33.76
2023-09-20T11:32:24.376Z,33.75
2023-09-20T11:34:54.086Z,33.74
2023-09-20T11:37:24.180Z,33.73
2023-09-20T11:39:58.276Z,33.71
2023-09-20T11:42:28.904Z,33.70
2023-09-20T11:45:11.529Z,33.66
2023-09-20T11:47:50.416Z,33.64
2023-09-20T11:50:20.009Z,33.63
2023-09-20T11:52:50.970Z,33.58
2023-09-20T11:55:22.598Z,33.55
2023-09-20T11:57:54.715Z,33.54
2023-09-20T12:00:29.309Z,33.52
2023-09-20T12:03:00.645Z,33.52
2023-09-20T12:05:30.890Z,33.52
2023-09-20T12:08:01.305Z,33.51
2023-09-20T12:10:32.157Z,33.51
2023-09-20T12:13:01.844Z,33.23
2023-09-20T12:15:31.549Z,33.06
2023-09-20T12:18:01.381Z,33.00
2023-09-20T12:20:30.942Z,32.93
2023-09-20T12:23:03.701Z,32.89
2023-09-20T12:25:33.870Z,32.88
2023-09-20T12:28:05.637Z,32.84
2023-09-20T12:30:35.317Z,32.81
2023-09-20T12:33:06.056Z,32.79
2023-09-20T12:35:36.726Z,32.75
2023-09-20T12:38:06.485Z,32.73
2023-09-20T12:40:35.959Z,32.74
2023-09-20T12:43:06.218Z,32.72
2023-09-20T12:45:36.124Z,32.73
2023-09-20T12:48:07.081Z,32.72
2023-09-20T12:50:38.969Z,32.74
2023-09-20T12:53:11.949Z,32.76
2023-09-20T12:55:42.101Z,32.71
2023-09-20T12:58:12.696Z,32.68
2023-09-20T13:00:47.476Z,32.70
2023-09-20T13:03:18.262Z,32.69
2023-09-20T13:05:48.179Z,32.63
2023-09-20T13:08:21.520Z,32.57
2023-09-20T13:10:56.315Z,32.53
2023-09-20T13:13:28.874Z,32.47
2023-09-20T13:15:59.489Z,32.46
2023-09-20T13:18:31.035Z,32.41
2023-09-20T13:21:00.752Z,32.40
2023-09-20T13:23:33.089Z,32.38
2023-09-20T13:26:05.733Z,32.34
2023-09-20T13:28:35.717Z,32.33
2023-09-20T13:31:05.365Z,32.28
2023-09-20T13:33:35.224Z,32.30
2023-09-20T13:36:04.914Z,32.27
2023-09-20T13:38:35.805Z,32.23
2023-09-20T13:41:05.841Z,32.22
2023-09-20T13:43:36.029Z,32.21
2023-09-20T13:46:06.951Z,32.19
2023-09-20T13:48:37.285Z,32.17
2023-09-20T13:51:08.144Z,32.18
2023-09-20T13:53:38.095Z,32.15
2023-09-20T13:56:07.632Z,32.15
2023-09-20T13:58:38.052Z,32.11
2023-09-20T14:01:07.688Z,31.97
2023-09-20T14:03:37.720Z,31.87
2023-09-20T14:06:09.573Z,31.63
2023-09-20T14:08:39.336Z,31.68
2023-09-20T14:11:09.398Z,31.63
2023-09-20T14:13:40.509Z,31.56
2023-09-20T14:16:13.204Z,31.47
2023-09-20T14:18:42.970Z,31.43
2023-09-20T14:21:12.351Z,31.38
2023-09-20T14:23:42.385Z,31.31
2023-09-20T14:26:14.118Z,31.27
2023-09-20T14:28:44.184Z,31.22
2023-09-20T14:31:17.636Z,31.19
2023-09-20T14:33:47.719Z,31.14
2023-09-20T14:36:20.534Z,31.12
2023-09-20T14:38:50.488Z,31.09
2023-09-20T14:41:20.163Z,31.07
2023-09-20T14:43:49.621Z,31.01
2023-09-20T14:46:21.085Z,30.97
2023-09-20T14:48:50.856Z,30.94
2023-09-20T14:51:20.425Z,30.88
2023-09-20T14:53:50.203Z,30.86
2023-09-20T14:56:20.089Z,30.80
2023-09-20T14:58:50.604Z,30.77
2023-09-20T15:01:21.361Z,30.70
2023-09-20T15:03:51.058Z,30.68
2023-09-20T15:06:25.050Z,30.64
2023-09-20T15:09:20.930Z,30.60
2023-09-20T15:11:53.724Z,30.54
2023-09-20T15:14:42.424Z,30.50
2023-09-20T15:17:39.871Z,30.46
2023-09-20T15:20:13.004Z,30.44
2023-09-20T15:22:43.017Z,30.42
2023-09-20T15:25:12.645Z,30.40
2023-09-20T15:27:45.059Z,30.39
2023-09-20T15:30:25.339Z,30.35
2023-09-20T15:32:55.687Z,30.33
2023-09-20T15:35:25.126Z,30.30
2023-09-20T15:37:54.655Z,30.28
2023-09-20T15:40:27.442Z,30.23
2023-09-20T15:42:59.598Z,30.35
2023-09-20T15:45:31.655Z,30.44
2023-09-20T15:48:01.977Z,30.48
2023-09-20T15:50:35.885Z,30.47
2023-09-20T15:53:05.691Z,30.47
2023-09-20T15:55:35.067Z,30.49
2023-09-20T15:58:05.094Z,30.47
2023-09-20T16:00:34.442Z,30.46
2023-09-20T16:03:05.205Z,30.43
2023-09-20T16:05:36.453Z,30.39
2023-09-20T16:08:56.222Z,30.35
2023-09-20T16:11:25.920Z,30.34
2023-09-20T16:13:55.328Z,30.31
2023-09-20T16:16:25.153Z,30.28
2023-09-20T16:18:54.601Z,30.27
2023-09-20T16:21:25.421Z,30.23
2023-09-20T16:23:55.021Z,30.20
2023-09-20T16:26:25.090Z,30.18
2023-09-20T16:28:54.869Z,30.14
2023-09-20T16:31:25.590Z,30.13
2023-09-20T16:33:55.045Z,30.11
2023-09-20T16:36:25.604Z,30.08
2023-09-20T16:38:55.058Z,30.04
2023-09-20T16:41:25.302Z,30.02
2023-09-20T16:43:54.733Z,29.98
2023-09-20T16:46:24.357Z,29.99
2023-09-20T16:48:54.312Z,29.97
2023-09-20T16:51:24.181Z,29.96
2023-09-20T16:53:53.652Z,29.93
2023-09-20T16:56:23.278Z,29.91
2023-09-20T16:58:52.595Z,29.91
2023-09-20T17:01:22.496Z,29.89
2023-09-20T17:03:52.043Z,29.87
2023-09-20T17:06:22.447Z,29.82
2023-09-20T17:08:52.282Z,29.80
2023-09-20T17:11:22.033Z,29.78
2023-09-20T17:13:53.622Z,29.76
2023-09-20T17:16:24.194Z,29.75
2023-09-20T17:18:53.742Z,29.69
2023-09-20T17:21:23.529Z,29.71
2023-09-20T17:23:53.082Z,29.69
2023-09-20T17:26:23.106Z,29.66
2023-09-20T17:28:54.396Z,29.64
2023-09-20T17:31:24.003Z,29.61
2023-09-20T17:33:54.191Z,29.62
2023-09-20T17:36:24.623Z,29.60
2023-09-20T17:38:54.411Z,29.58
2023-09-20T17:41:24.202Z,29.56
2023-09-20T17:43:55.687Z,29.56
2023-09-20T17:46:25.325Z,29.50
2023-09-20T17:48:56.064Z,29.51
2023-09-20T17:51:26.829Z,29.50
2023-09-20T17:53:56.256Z,29.51
2023-09-20T17:56:30.061Z,29.46
2023-09-20T17:59:20.872Z,29.47
2023-09-20T18:01:56.419Z,29.45
2023-09-20T18:04:26.158Z,29.43
2023-09-20T18:06:55.534Z,29.39
2023-09-20T18:09:25.211Z,29.38
2023-09-20T18:11:55.347Z,29.35
2023-09-20T18:14:24.940Z,29.35
2023-09-20T18:16:54.397Z,29.34
2023-09-20T18:19:27.671Z,29.32
2023-09-20T18:21:58.347Z,29.32
2023-09-20T18:24:28.204Z,29.31
2023-09-20T18:26:59.649Z,29.29
2023-09-20T18:29:29.223Z,29.26
2023-09-20T18:31:58.684Z,29.25
2023-09-20T18:34:30.523Z,29.24
2023-09-20T18:37:00.183Z,29.21
2023-09-20T18:39:29.582Z,29.22
2023-09-20T18:42:01.487Z,29.21
2023-09-20T18:44:56.414Z,29.18
2023-09-20T18:47:51.121Z,29.18
2023-09-20T18:50:49.591Z,29.15
2023-09-20T18:53:45.176Z,29.13
2023-09-20T18:56:32.967Z,29.12
2023-09-20T18:59:20.457Z,28.95
2023-09-20T19:02:15.394Z,29.06
2023-09-20T19:05:03.218Z,29.06
2023-09-20T19:07:57.286Z,28.88
2023-09-20T19:10:45.759Z,29.03
2023-09-20T19:13:35.173Z,29.00
2023-09-20T19:16:24.171Z,29.03
2023-09-20T19:19:19.816Z,28.99
2023-09-20T19:22:08.703Z,28.99
2023-09-20T19:25:03.621Z,28.95
2023-09-20T19:27:52.876Z,28.95
2023-09-20T19:30:40.337Z,28.94
2023-09-20T19:33:31.341Z,28.90
2023-09-20T19:36:20.485Z,28.88
2023-09-20T19:39:08.219Z,28.84
2023-09-20T19:41:56.695Z,28.87
2023-09-20T19:44:46.534Z,28.82
2023-09-20T19:47:34.455Z,28.82
2023-09-20T19:50:23.530Z,28.81
2023-09-20T19:53:14.285Z,28.80
2023-09-20T19:56:02.187Z,28.78
2023-09-20T19:58:52.169Z,28.77
2023-09-20T20:01:46.164Z,28.74
2023-09-20T20:04:34.347Z,28.73
2023-09-20T20:07:27.847Z,28.74
2023-09-20T20:10:22.407Z,28.70
2023-09-20T20:13:10.769Z,28.67
2023-09-20T20:15:58.783Z,28.70
2023-09-20T20:18:53.614Z,28.67
2023-09-20T20:21:41.338Z,28.51
2023-09-20T20:24:30.251Z,28.64
2023-09-20T20:27:24.417Z,28.63
2023-09-20T20:30:12.242Z,28.63
2023-09-20T20:33:00.311Z,28.60
2023-09-20T20:35:50.037Z,28.60
2023-09-20T20:38:38.113Z,28.56
2023-09-20T20:41:25.893Z,28.54
2023-09-20T20:44:14.190Z,28.55
2023-09-20T20:47:08.193Z,28.54
2023-09-20T20:49:58.455Z,28.52
2023-09-20T20:52:51.243Z,28.51
2023-09-20T20:55:39.828Z,28.50
2023-09-20T20:58:27.452Z,28.47
2023-09-20T21:01:15.295Z,28.49
2023-09-20T21:04:06.344Z,28.50
2023-09-20T21:06:54.169Z,28.52
2023-09-20T21:09:43.553Z,28.49
2023-09-20T21:12:32.293Z,28.50
2023-09-20T21:15:23.544Z,28.49
2023-09-20T21:18:11.300Z,28.48
2023-09-20T21:21:07.925Z,28.47
2023-09-20T21:23:56.486Z,28.44
2023-09-20T21:26:44.481Z,28.46
2023-09-20T21:29:38.864Z,28.42
2023-09-20T21:32:28.101Z,28.42
2023-09-20T21:35:16.759Z,28.41
2023-09-20T21:38:13.423Z,28.37
2023-09-20T21:41:01.242Z,28.35
2023-09-20T21:43:49.765Z,28.35
2023-09-20T21:46:38.648Z,28.33
2023-09-20T21:49:26.546Z,28.31
2023-09-20T21:52:15.133Z,28.29
2023-09-20T21:55:03.321Z,28.28
2023-09-20T21:57:54.802Z,28.29
2023-09-20T22:00:43.039Z,28.25
2023-09-20T22:03:32.730Z,28.22
2023-09-20T22:06:22.431Z,28.26
2023-09-20T22:09:11.752Z,28.25
2023-09-20T22:11:59.815Z,28.21
2023-09-20T22:14:49.744Z,28.20
2023-09-20T22:17:38.831Z,28.15
2023-09-20T22:20:34.070Z,28.14
2023-09-20T22:23:22.267Z,28.13
2023-09-20T22:26:10.269Z,28.13
2023-09-20T22:28:58.250Z,28.12
2023-09-20T22:31:52.903Z,28.12
2023-09-20T22:34:41.152Z,28.11
2023-09-20T22:37:35.932Z,28.17
2023-09-20T22:40:24.225Z,28.25
2023-09-20T22:43:12.087Z,28.32
2023-09-20T22:45:59.790Z,28.39
2023-09-20T22:48:55.464Z,28.45
2023-09-20T22:51:43.228Z,28.51
2023-09-20T22:54:36.210Z,28.59
2023-09-20T22:57:27.390Z,28.64
2023-09-20T23:00:17.879Z,28.69
2023-09-20T23:03:08.485Z,28.77
2023-09-20T23:05:57.502Z,28.82
2023-09-20T23:08:46.641Z,28.84
2023-09-20T23:11:41.127Z,28.90
2023-09-20T23:14:29.005Z,28.92
2023-09-20T23:17:17.220Z,28.96
2023-09-20T23:20:24.746Z,29.00
2023-09-20T23:23:16.048Z,29.04
2023-09-20T23:26:03.860Z,29.06
2023-09-20T23:28:52.294Z,29.10
2023-09-20T23:31:48.955Z,29.13
2023-09-20T23:34:36.842Z,29.15
2023-09-20T23:37:25.446Z,29.17
2023-09-20T23:40:14.491Z,29.19
2023-09-20T23:43:02.066Z,29.23
2023-09-20T23:45:52.019Z,29.28
2023-09-20T23:48:40.338Z,29.33
2023-09-20T23:51:29.855Z,29.42
2023-09-20T23:54:17.713Z,29.46
2023-09-20T23:57:09.058Z,29.51
2023-09-20T23:59:56.980Z,29.59
